sensor_id;sensor_type;location;lat;lon;timestamp;temperature;humidity
26541;DHT22;14206;50.202;10.948;2023-04-15T00:01:10;8.00;91.80
26541;DHT22;14206;50.202;10.948;2023-04-15T00:03:37;8.00;91.60
26541;DHT22;14206;50.202;10.948;2023-04-15T00:06:05;8.00;91.80
26541;DHT22;14206;50.202;10.948;2023-04-15T00:08:32;8.00;91.80
26541;DHT22;14206;50.202;10.948;2023-04-15T00:10:59;8.00;91.80
26541;DHT22;14206;50.202;10.948;2023-04-15T00:13:28;8.00;91.70
26541;DHT22;14206;50.202;10.948;2023-04-15T00:15:55;8.00;91.70
26541;DHT22;14206;50.202;10.948;2023-04-15T00:18:23;8.00;91.80
26541;DHT22;14206;50.202;10.948;2023-04-15T00:20:50;8.00;91.70
26541;DHT22;14206;50.202;10.948;2023-04-15T00:23:17;8.00;91.80
26541;DHT22;14206;50.202;10.948;2023-04-15T00:25:44;8.00;91.70
26541;DHT22;14206;50.202;10.948;2023-04-15T00:28:11;8.00;91.60
26541;DHT22;14206;50.202;10.948;2023-04-15T00:30:38;8.00;91.70
26541;DHT22;14206;50.202;10.948;2023-04-15T00:33:04;8.00;91.60
26541;DHT22;14206;50.202;10.948;2023-04-15T00:35:32;8.00;91.80
26541;DHT22;14206;50.202;10.948;2023-04-15T00:37:59;8.00;91.90
26541;DHT22;14206;50.202;10.948;2023-04-15T00:40:26;7.90;91.80
26541;DHT22;14206;50.202;10.948;2023-04-15T00:42:53;8.00;91.70
26541;DHT22;14206;50.202;10.948;2023-04-15T00:45:20;8.00;91.80
26541;DHT22;14206;50.202;10.948;2023-04-15T00:47:47;8.00;91.60
26541;DHT22;14206;50.202;10.948;2023-04-15T00:50:14;8.00;91.80
26541;DHT22;14206;50.202;10.948;2023-04-15T00:52:41;8.00;91.70
26541;DHT22;14206;50.202;10.948;2023-04-15T00:55:08;8.00;91.60
26541;DHT22;14206;50.202;10.948;2023-04-15T00:57:36;8.00;91.90
26541;DHT22;14206;50.202;10.948;2023-04-15T01:00:04;8.00;91.70
26541;DHT22;14206;50.202;10.948;2023-04-15T01:02:34;8.00;91.90
26541;DHT22;14206;50.202;10.948;2023-04-15T01:05:03;8.00;91.80
26541;DHT22;14206;50.202;10.948;2023-04-15T01:07:30;8.00;91.80
26541;DHT22;14206;50.202;10.948;2023-04-15T01:09:57;8.00;91.70
26541;DHT22;14206;50.202;10.948;2023-04-15T01:12:25;8.00;91.80
26541;DHT22;14206;50.202;10.948;2023-04-15T01:14:53;8.00;91.70
26541;DHT22;14206;50.202;10.948;2023-04-15T01:17:20;8.00;91.90
26541;DHT22;14206;50.202;10.948;2023-04-15T01:19:47;8.00;91.80
26541;DHT22;14206;50.202;10.948;2023-04-15T01:22:14;8.00;91.60
26541;DHT22;14206;50.202;10.948;2023-04-15T01:24:45;8.00;92.00
26541;DHT22;14206;50.202;10.948;2023-04-15T01:27:15;8.00;92.00
26541;DHT22;14206;50.202;10.948;2023-04-15T01:29:42;8.00;91.90
26541;DHT22;14206;50.202;10.948;2023-04-15T01:32:10;8.00;91.90
26541;DHT22;14206;50.202;10.948;2023-04-15T01:34:37;8.00;92.00
26541;DHT22;14206;50.202;10.948;2023-04-15T01:37:04;8.00;91.80
26541;DHT22;14206;50.202;10.948;2023-04-15T01:39:31;8.00;91.70
26541;DHT22;14206;50.202;10.948;2023-04-15T01:41:57;7.90;92.30
26541;DHT22;14206;50.202;10.948;2023-04-15T01:44:24;7.90;92.10
26541;DHT22;14206;50.202;10.948;2023-04-15T01:46:52;7.90;92.30
26541;DHT22;14206;50.202;10.948;2023-04-15T01:49:19;7.90;92.50
26541;DHT22;14206;50.202;10.948;2023-04-15T01:51:45;7.80;92.80
26541;DHT22;14206;50.202;10.948;2023-04-15T01:54:12;7.80;92.90
26541;DHT22;14206;50.202;10.948;2023-04-15T01:56:39;7.90;92.90
26541;DHT22;14206;50.202;10.948;2023-04-15T01:59:06;7.80;92.70
26541;DHT22;14206;50.202;10.948;2023-04-15T02:01:33;7.90;92.50
26541;DHT22;14206;50.202;10.948;2023-04-15T02:04:00;7.90;92.20
26541;DHT22;14206;50.202;10.948;2023-04-15T02:06:30;7.90;92.20
26541;DHT22;14206;50.202;10.948;2023-04-15T02:08:57;7.90;92.10
26541;DHT22;14206;50.202;10.948;2023-04-15T02:11:25;7.90;92.20
26541;DHT22;14206;50.202;10.948;2023-04-15T02:13:52;7.90;92.30
26541;DHT22;14206;50.202;10.948;2023-04-15T02:16:19;7.90;92.30
26541;DHT22;14206;50.202;10.948;2023-04-15T02:18:46;7.90;92.30
26541;DHT22;14206;50.202;10.948;2023-04-15T02:21:13;7.90;92.50
26541;DHT22;14206;50.202;10.948;2023-04-15T02:23:40;7.90;92.50
26541;DHT22;14206;50.202;10.948;2023-04-15T02:26:07;7.90;92.30
26541;DHT22;14206;50.202;10.948;2023-04-15T02:28:34;7.90;92.70
26541;DHT22;14206;50.202;10.948;2023-04-15T02:31:07;8.00;92.50
26541;DHT22;14206;50.202;10.948;2023-04-15T02:33:35;7.90;92.20
26541;DHT22;14206;50.202;10.948;2023-04-15T02:36:04;7.90;92.50
26541;DHT22;14206;50.202;10.948;2023-04-15T02:38:32;8.00;92.20
26541;DHT22;14206;50.202;10.948;2023-04-15T02:40:59;8.00;92.20
26541;DHT22;14206;50.202;10.948;2023-04-15T02:43:27;7.90;92.20
26541;DHT22;14206;50.202;10.948;2023-04-15T02:45:54;8.00;92.20
26541;DHT22;14206;50.202;10.948;2023-04-15T02:48:21;8.00;92.20
26541;DHT22;14206;50.202;10.948;2023-04-15T02:50:48;8.00;92.20
26541;DHT22;14206;50.202;10.948;2023-04-15T02:53:16;7.90;92.20
26541;DHT22;14206;50.202;10.948;2023-04-15T02:55:43;7.90;92.50
26541;DHT22;14206;50.202;10.948;2023-04-15T02:58:10;7.90;92.50
26541;DHT22;14206;50.202;10.948;2023-04-15T03:00:37;7.90;92.50
26541;DHT22;14206;50.202;10.948;2023-04-15T03:03:04;7.90;92.50
26541;DHT22;14206;50.202;10.948;2023-04-15T03:05:32;7.90;92.50
26541;DHT22;14206;50.202;10.948;2023-04-15T03:08:01;7.90;92.30
26541;DHT22;14206;50.202;10.948;2023-04-15T03:10:28;7.80;92.80
26541;DHT22;14206;50.202;10.948;2023-04-15T03:12:55;7.80;92.90
26541;DHT22;14206;50.202;10.948;2023-04-15T03:15:23;7.80;93.00
26541;DHT22;14206;50.202;10.948;2023-04-15T03:17:51;7.80;92.90
26541;DHT22;14206;50.202;10.948;2023-04-15T03:20:18;7.80;93.00
26541;DHT22;14206;50.202;10.948;2023-04-15T03:22:47;7.80;93.00
26541;DHT22;14206;50.202;10.948;2023-04-15T03:25:14;7.70;93.40
26541;DHT22;14206;50.202;10.948;2023-04-15T03:27:41;7.70;93.50
26541;DHT22;14206;50.202;10.948;2023-04-15T03:30:09;7.70;93.20
26541;DHT22;14206;50.202;10.948;2023-04-15T03:32:38;7.70;93.30
26541;DHT22;14206;50.202;10.948;2023-04-15T03:35:06;7.60;93.40
26541;DHT22;14206;50.202;10.948;2023-04-15T03:37:33;7.70;93.30
26541;DHT22;14206;50.202;10.948;2023-04-15T03:40:01;7.60;93.30
26541;DHT22;14206;50.202;10.948;2023-04-15T03:42:27;7.60;93.50
26541;DHT22;14206;50.202;10.948;2023-04-15T03:44:54;7.60;93.60
26541;DHT22;14206;50.202;10.948;2023-04-15T03:47:21;7.60;93.60
26541;DHT22;14206;50.202;10.948;2023-04-15T03:49:48;7.60;93.60
26541;DHT22;14206;50.202;10.948;2023-04-15T03:52:15;7.60;93.50
26541;DHT22;14206;50.202;10.948;2023-04-15T03:54:41;7.60;93.60
26541;DHT22;14206;50.202;10.948;2023-04-15T03:57:08;7.60;93.40
26541;DHT22;14206;50.202;10.948;2023-04-15T03:59:35;7.60;93.60
26541;DHT22;14206;50.202;10.948;2023-04-15T04:02:02;7.60;93.40
26541;DHT22;14206;50.202;10.948;2023-04-15T04:04:29;7.60;93.20
26541;DHT22;14206;50.202;10.948;2023-04-15T04:06:56;7.60;93.40
26541;DHT22;14206;50.202;10.948;2023-04-15T04:09:22;7.60;93.40
26541;DHT22;14206;50.202;10.948;2023-04-15T04:11:49;7.60;93.40
26541;DHT22;14206;50.202;10.948;2023-04-15T04:14:16;7.60;93.60
26541;DHT22;14206;50.202;10.948;2023-04-15T04:16:43;7.60;93.70
26541;DHT22;14206;50.202;10.948;2023-04-15T04:19:10;7.60;93.70
26541;DHT22;14206;50.202;10.948;2023-04-15T04:21:37;7.60;93.90
26541;DHT22;14206;50.202;10.948;2023-04-15T04:24:05;7.60;93.90
26541;DHT22;14206;50.202;10.948;2023-04-15T04:26:31;7.60;93.90
26541;DHT22;14206;50.202;10.948;2023-04-15T04:28:58;7.60;93.70
26541;DHT22;14206;50.202;10.948;2023-04-15T04:31:25;7.60;94.10
26541;DHT22;14206;50.202;10.948;2023-04-15T04:33:52;7.60;94.20
26541;DHT22;14206;50.202;10.948;2023-04-15T04:36:19;7.60;94.00
26541;DHT22;14206;50.202;10.948;2023-04-15T04:38:46;7.60;94.30
26541;DHT22;14206;50.202;10.948;2023-04-15T04:41:13;7.70;94.20
26541;DHT22;14206;50.202;10.948;2023-04-15T04:43:40;7.70;94.40
26541;DHT22;14206;50.202;10.948;2023-04-15T04:46:06;7.70;95.10
26541;DHT22;14206;50.202;10.948;2023-04-15T04:48:33;7.70;95.30
26541;DHT22;14206;50.202;10.948;2023-04-15T04:51:00;7.70;95.60
26541;DHT22;14206;50.202;10.948;2023-04-15T04:53:27;7.70;95.50
26541;DHT22;14206;50.202;10.948;2023-04-15T04:55:54;7.70;95.80
26541;DHT22;14206;50.202;10.948;2023-04-15T04:58:21;7.70;96.10
26541;DHT22;14206;50.202;10.948;2023-04-15T05:00:48;7.60;96.40
26541;DHT22;14206;50.202;10.948;2023-04-15T05:03:14;7.60;96.60
26541;DHT22;14206;50.202;10.948;2023-04-15T05:05:42;7.60;96.60
26541;DHT22;14206;50.202;10.948;2023-04-15T05:08:09;7.60;96.60
26541;DHT22;14206;50.202;10.948;2023-04-15T05:10:36;7.60;96.60
26541;DHT22;14206;50.202;10.948;2023-04-15T05:13:02;7.60;96.60
26541;DHT22;14206;50.202;10.948;2023-04-15T05:15:29;7.60;96.60
26541;DHT22;14206;50.202;10.948;2023-04-15T05:17:56;7.60;96.60
26541;DHT22;14206;50.202;10.948;2023-04-15T05:20:24;7.70;96.60
26541;DHT22;14206;50.202;10.948;2023-04-15T05:22:51;7.60;96.60
26541;DHT22;14206;50.202;10.948;2023-04-15T05:25:18;7.60;96.60
26541;DHT22;14206;50.202;10.948;2023-04-15T05:27:45;7.60;96.60
26541;DHT22;14206;50.202;10.948;2023-04-15T05:30:11;7.60;96.60
26541;DHT22;14206;50.202;10.948;2023-04-15T05:32:39;7.50;96.60
26541;DHT22;14206;50.202;10.948;2023-04-15T05:35:06;7.50;96.60
26541;DHT22;14206;50.202;10.948;2023-04-15T05:37:34;7.50;96.60
26541;DHT22;14206;50.202;10.948;2023-04-15T05:40:01;7.50;96.60
26541;DHT22;14206;50.202;10.948;2023-04-15T05:42:28;7.50;96.60
26541;DHT22;14206;50.202;10.948;2023-04-15T05:44:54;7.40;96.60
26541;DHT22;14206;50.202;10.948;2023-04-15T05:47:21;7.40;96.60
26541;DHT22;14206;50.202;10.948;2023-04-15T05:49:48;7.40;96.60
26541;DHT22;14206;50.202;10.948;2023-04-15T05:52:15;7.50;96.60
26541;DHT22;14206;50.202;10.948;2023-04-15T05:54:42;7.50;96.60
26541;DHT22;14206;50.202;10.948;2023-04-15T05:57:09;7.50;96.60
26541;DHT22;14206;50.202;10.948;2023-04-15T05:59:35;7.60;96.60
26541;DHT22;14206;50.202;10.948;2023-04-15T06:02:02;7.50;96.60
26541;DHT22;14206;50.202;10.948;2023-04-15T06:04:29;7.50;96.60
26541;DHT22;14206;50.202;10.948;2023-04-15T06:06:56;7.60;96.60
26541;DHT22;14206;50.202;10.948;2023-04-15T06:09:23;7.60;96.60
26541;DHT22;14206;50.202;10.948;2023-04-15T06:11:51;7.60;96.60
26541;DHT22;14206;50.202;10.948;2023-04-15T06:14:17;7.60;96.60
26541;DHT22;14206;50.202;10.948;2023-04-15T06:16:44;7.50;96.60
26541;DHT22;14206;50.202;10.948;2023-04-15T06:19:11;7.50;96.60
26541;DHT22;14206;50.202;10.948;2023-04-15T06:21:38;7.50;96.60
26541;DHT22;14206;50.202;10.948;2023-04-15T06:24:05;7.50;96.60
26541;DHT22;14206;50.202;10.948;2023-04-15T06:26:32;7.50;96.60
26541;DHT22;14206;50.202;10.948;2023-04-15T06:28:59;7.50;96.60
26541;DHT22;14206;50.202;10.948;2023-04-15T06:31:26;7.50;96.60
26541;DHT22;14206;50.202;10.948;2023-04-15T06:33:53;7.50;96.60
26541;DHT22;14206;50.202;10.948;2023-04-15T06:36:20;7.50;96.60
26541;DHT22;14206;50.202;10.948;2023-04-15T06:38:47;7.60;96.60
26541;DHT22;14206;50.202;10.948;2023-04-15T06:41:13;7.60;96.60
26541;DHT22;14206;50.202;10.948;2023-04-15T06:43:41;7.70;96.60
26541;DHT22;14206;50.202;10.948;2023-04-15T06:46:08;7.70;96.60
26541;DHT22;14206;50.202;10.948;2023-04-15T06:48:34;7.70;96.60
26541;DHT22;14206;50.202;10.948;2023-04-15T06:51:01;7.70;96.60
26541;DHT22;14206;50.202;10.948;2023-04-15T06:53:29;7.80;96.60
26541;DHT22;14206;50.202;10.948;2023-04-15T06:55:56;7.80;96.60
26541;DHT22;14206;50.202;10.948;2023-04-15T06:58:23;7.80;96.60
26541;DHT22;14206;50.202;10.948;2023-04-15T07:00:50;7.70;96.60
26541;DHT22;14206;50.202;10.948;2023-04-15T07:03:17;7.70;96.60
26541;DHT22;14206;50.202;10.948;2023-04-15T07:05:44;7.70;96.60
26541;DHT22;14206;50.202;10.948;2023-04-15T07:08:11;7.80;96.60
26541;DHT22;14206;50.202;10.948;2023-04-15T07:10:38;7.70;96.60
26541;DHT22;14206;50.202;10.948;2023-04-15T07:13:05;7.80;96.60
26541;DHT22;14206;50.202;10.948;2023-04-15T07:15:34;7.80;96.60
26541;DHT22;14206;50.202;10.948;2023-04-15T07:18:01;7.70;96.60
26541;DHT22;14206;50.202;10.948;2023-04-15T07:20:28;7.70;96.60
26541;DHT22;14206;50.202;10.948;2023-04-15T07:22:54;7.80;96.60
26541;DHT22;14206;50.202;10.948;2023-04-15T07:25:21;7.80;96.60
26541;DHT22;14206;50.202;10.948;2023-04-15T07:27:48;7.90;96.60
26541;DHT22;14206;50.202;10.948;2023-04-15T07:30:15;7.90;96.60
26541;DHT22;14206;50.202;10.948;2023-04-15T07:32:42;7.90;96.60
26541;DHT22;14206;50.202;10.948;2023-04-15T07:35:09;7.90;96.60
26541;DHT22;14206;50.202;10.948;2023-04-15T07:37:37;8.00;96.60
26541;DHT22;14206;50.202;10.948;2023-04-15T07:40:04;8.00;96.60
26541;DHT22;14206;50.202;10.948;2023-04-15T07:42:33;8.00;96.60
26541;DHT22;14206;50.202;10.948;2023-04-15T07:45:00;8.00;96.60
26541;DHT22;14206;50.202;10.948;2023-04-15T07:47:27;8.00;96.60
26541;DHT22;14206;50.202;10.948;2023-04-15T07:49:53;8.10;96.60
26541;DHT22;14206;50.202;10.948;2023-04-15T07:52:20;8.10;96.60
26541;DHT22;14206;50.202;10.948;2023-04-15T07:54:47;8.10;96.60
26541;DHT22;14206;50.202;10.948;2023-04-15T07:57:14;8.10;96.60
26541;DHT22;14206;50.202;10.948;2023-04-15T07:59:42;8.00;96.60
26541;DHT22;14206;50.202;10.948;2023-04-15T08:02:10;8.00;96.60
26541;DHT22;14206;50.202;10.948;2023-04-15T08:04:37;8.00;96.60
26541;DHT22;14206;50.202;10.948;2023-04-15T08:07:05;8.00;96.60
26541;DHT22;14206;50.202;10.948;2023-04-15T08:09:32;8.00;96.60
26541;DHT22;14206;50.202;10.948;2023-04-15T08:11:59;8.00;96.60
26541;DHT22;14206;50.202;10.948;2023-04-15T08:14:26;8.00;96.60
26541;DHT22;14206;50.202;10.948;2023-04-15T08:16:53;8.00;96.60
26541;DHT22;14206;50.202;10.948;2023-04-15T08:19:20;8.10;96.60
26541;DHT22;14206;50.202;10.948;2023-04-15T08:21:47;8.10;96.60
26541;DHT22;14206;50.202;10.948;2023-04-15T08:24:13;8.20;96.60
26541;DHT22;14206;50.202;10.948;2023-04-15T08:26:41;8.20;96.60
26541;DHT22;14206;50.202;10.948;2023-04-15T08:29:08;8.30;96.60
26541;DHT22;14206;50.202;10.948;2023-04-15T08:31:35;8.20;96.60
26541;DHT22;14206;50.202;10.948;2023-04-15T08:34:02;8.30;96.60
26541;DHT22;14206;50.202;10.948;2023-04-15T08:36:29;8.40;96.60
26541;DHT22;14206;50.202;10.948;2023-04-15T08:38:57;8.40;96.60
26541;DHT22;14206;50.202;10.948;2023-04-15T08:41:33;8.50;96.60
26541;DHT22;14206;50.202;10.948;2023-04-15T08:44:05;8.60;96.60
26541;DHT22;14206;50.202;10.948;2023-04-15T08:46:32;8.70;96.60
26541;DHT22;14206;50.202;10.948;2023-04-15T08:49:03;8.70;96.60
26541;DHT22;14206;50.202;10.948;2023-04-15T08:51:31;8.70;96.60
26541;DHT22;14206;50.202;10.948;2023-04-15T08:53:58;8.70;96.60
26541;DHT22;14206;50.202;10.948;2023-04-15T08:56:27;8.60;96.60
26541;DHT22;14206;50.202;10.948;2023-04-15T08:58:57;8.60;96.60
26541;DHT22;14206;50.202;10.948;2023-04-15T09:01:24;8.60;96.60
26541;DHT22;14206;50.202;10.948;2023-04-15T09:03:51;8.50;96.60
26541;DHT22;14206;50.202;10.948;2023-04-15T09:06:22;8.60;96.60
26541;DHT22;14206;50.202;10.948;2023-04-15T09:08:50;8.60;96.60
26541;DHT22;14206;50.202;10.948;2023-04-15T09:11:18;8.70;96.60
26541;DHT22;14206;50.202;10.948;2023-04-15T09:13:46;8.70;96.60
26541;DHT22;14206;50.202;10.948;2023-04-15T09:16:13;8.80;96.60
26541;DHT22;14206;50.202;10.948;2023-04-15T09:18:40;8.80;96.60
26541;DHT22;14206;50.202;10.948;2023-04-15T09:21:09;8.80;96.60
26541;DHT22;14206;50.202;10.948;2023-04-15T09:23:38;8.80;96.60
26541;DHT22;14206;50.202;10.948;2023-04-15T09:26:06;8.80;96.60
26541;DHT22;14206;50.202;10.948;2023-04-15T09:28:40;8.90;96.60
26541;DHT22;14206;50.202;10.948;2023-04-15T09:31:08;8.90;96.60
26541;DHT22;14206;50.202;10.948;2023-04-15T09:33:53;8.90;96.60
26541;DHT22;14206;50.202;10.948;2023-04-15T09:36:20;8.90;96.60
26541;DHT22;14206;50.202;10.948;2023-04-15T09:38:58;9.00;96.60
26541;DHT22;14206;50.202;10.948;2023-04-15T09:41:25;9.00;96.60
26541;DHT22;14206;50.202;10.948;2023-04-15T09:43:52;9.00;96.60
26541;DHT22;14206;50.202;10.948;2023-04-15T09:46:19;9.00;96.60
26541;DHT22;14206;50.202;10.948;2023-04-15T09:48:46;9.00;96.60
26541;DHT22;14206;50.202;10.948;2023-04-15T09:51:34;9.10;96.60
26541;DHT22;14206;50.202;10.948;2023-04-15T09:54:01;9.20;96.60
26541;DHT22;14206;50.202;10.948;2023-04-15T09:56:35;9.20;96.60
26541;DHT22;14206;50.202;10.948;2023-04-15T09:59:04;9.30;96.60
26541;DHT22;14206;50.202;10.948;2023-04-15T10:01:31;9.30;96.60
26541;DHT22;14206;50.202;10.948;2023-04-15T10:04:02;9.30;96.60
26541;DHT22;14206;50.202;10.948;2023-04-15T10:06:30;9.30;96.60
26541;DHT22;14206;50.202;10.948;2023-04-15T10:08:57;9.30;96.60
26541;DHT22;14206;50.202;10.948;2023-04-15T10:11:27;9.30;96.60
26541;DHT22;14206;50.202;10.948;2023-04-15T10:13:56;9.30;96.60
26541;DHT22;14206;50.202;10.948;2023-04-15T10:16:26;9.30;96.60
26541;DHT22;14206;50.202;10.948;2023-04-15T10:18:55;9.40;96.60
26541;DHT22;14206;50.202;10.948;2023-04-15T10:21:22;9.50;96.60
26541;DHT22;14206;50.202;10.948;2023-04-15T10:23:50;9.50;96.60
26541;DHT22;14206;50.202;10.948;2023-04-15T10:26:17;9.50;96.60
26541;DHT22;14206;50.202;10.948;2023-04-15T10:28:44;9.50;96.60
26541;DHT22;14206;50.202;10.948;2023-04-15T10:31:13;9.40;96.60
26541;DHT22;14206;50.202;10.948;2023-04-15T10:33:45;9.50;96.60
26541;DHT22;14206;50.202;10.948;2023-04-15T10:36:14;9.50;96.60
26541;DHT22;14206;50.202;10.948;2023-04-15T10:38:43;9.60;96.60
26541;DHT22;14206;50.202;10.948;2023-04-15T10:41:31;9.60;96.60
26541;DHT22;14206;50.202;10.948;2023-04-15T10:44:02;9.70;96.60
26541;DHT22;14206;50.202;10.948;2023-04-15T10:46:41;9.80;96.60
26541;DHT22;14206;50.202;10.948;2023-04-15T10:51:40;9.80;96.60
26541;DHT22;14206;50.202;10.948;2023-04-15T10:54:14;9.80;96.60
26541;DHT22;14206;50.202;10.948;2023-04-15T10:56:43;9.80;96.60
26541;DHT22;14206;50.202;10.948;2023-04-15T10:59:10;9.80;96.60
26541;DHT22;14206;50.202;10.948;2023-04-15T11:02:01;9.80;96.60
26541;DHT22;14206;50.202;10.948;2023-04-15T11:04:56;9.70;96.60
26541;DHT22;14206;50.202;10.948;2023-04-15T11:12:40;9.80;96.60
26541;DHT22;14206;50.202;10.948;2023-04-15T11:15:29;9.90;96.60
26541;DHT22;14206;50.202;10.948;2023-04-15T11:20:34;10.30;96.60
26541;DHT22;14206;50.202;10.948;2023-04-15T11:23:01;10.50;96.60
26541;DHT22;14206;50.202;10.948;2023-04-15T11:25:41;10.60;96.60
26541;DHT22;14206;50.202;10.948;2023-04-15T11:28:09;10.80;96.60
26541;DHT22;14206;50.202;10.948;2023-04-15T11:30:37;11.10;96.60
26541;DHT22;14206;50.202;10.948;2023-04-15T11:33:06;11.30;96.20
26541;DHT22;14206;50.202;10.948;2023-04-15T11:35:34;11.60;95.30
26541;DHT22;14206;50.202;10.948;2023-04-15T11:38:05;11.80;93.90
26541;DHT22;14206;50.202;10.948;2023-04-15T11:40:34;11.90;93.10
26541;DHT22;14206;50.202;10.948;2023-04-15T11:43:18;11.90;93.30
26541;DHT22;14206;50.202;10.948;2023-04-15T11:45:54;12.00;93.10
26541;DHT22;14206;50.202;10.948;2023-04-15T11:48:24;12.10;92.60
26541;DHT22;14206;50.202;10.948;2023-04-15T11:50:57;12.20;92.00
26541;DHT22;14206;50.202;10.948;2023-04-15T11:53:34;12.20;91.10
26541;DHT22;14206;50.202;10.948;2023-04-15T11:56:01;12.10;91.70
26541;DHT22;14206;50.202;10.948;2023-04-15T11:58:29;12.00;92.70
26541;DHT22;14206;50.202;10.948;2023-04-15T12:01:00;12.00;92.10
26541;DHT22;14206;50.202;10.948;2023-04-15T12:03:28;12.00;91.30
26541;DHT22;14206;50.202;10.948;2023-04-15T12:11:47;12.00;92.90
26541;DHT22;14206;50.202;10.948;2023-04-15T12:14:29;11.90;91.50
26541;DHT22;14206;50.202;10.948;2023-04-15T12:17:03;11.80;92.70
26541;DHT22;14206;50.202;10.948;2023-04-15T12:19:41;11.80;92.70
26541;DHT22;14206;50.202;10.948;2023-04-15T12:22:10;11.80;92.80
26541;DHT22;14206;50.202;10.948;2023-04-15T12:24:37;11.70;92.60
26541;DHT22;14206;50.202;10.948;2023-04-15T12:27:06;11.70;92.70
26541;DHT22;14206;50.202;10.948;2023-04-15T12:29:35;11.60;93.00
26541;DHT22;14206;50.202;10.948;2023-04-15T12:32:15;11.50;92.70
26541;DHT22;14206;50.202;10.948;2023-04-15T12:34:48;11.40;93.10
26541;DHT22;14206;50.202;10.948;2023-04-15T12:37:16;11.30;93.50
26541;DHT22;14206;50.202;10.948;2023-04-15T12:39:44;11.30;93.40
26541;DHT22;14206;50.202;10.948;2023-04-15T12:42:11;11.20;93.10
26541;DHT22;14206;50.202;10.948;2023-04-15T12:44:38;11.10;93.20
26541;DHT22;14206;50.202;10.948;2023-04-15T12:47:07;10.90;92.80
26541;DHT22;14206;50.202;10.948;2023-04-15T12:49:34;10.80;93.80
26541;DHT22;14206;50.202;10.948;2023-04-15T12:52:02;10.70;93.80
26541;DHT22;14206;50.202;10.948;2023-04-15T12:54:30;10.60;93.80
26541;DHT22;14206;50.202;10.948;2023-04-15T12:56:57;10.60;94.70
26541;DHT22;14206;50.202;10.948;2023-04-15T12:59:25;10.50;94.90
26541;DHT22;14206;50.202;10.948;2023-04-15T13:01:52;10.50;95.20
26541;DHT22;14206;50.202;10.948;2023-04-15T13:04:20;10.50;95.10
26541;DHT22;14206;50.202;10.948;2023-04-15T13:06:47;10.40;95.40
26541;DHT22;14206;50.202;10.948;2023-04-15T13:09:14;10.40;95.50
26541;DHT22;14206;50.202;10.948;2023-04-15T13:11:41;10.40;95.40
26541;DHT22;14206;50.202;10.948;2023-04-15T13:14:09;10.30;95.50
26541;DHT22;14206;50.202;10.948;2023-04-15T13:16:38;10.30;96.60
26541;DHT22;14206;50.202;10.948;2023-04-15T13:19:05;10.30;96.60
26541;DHT22;14206;50.202;10.948;2023-04-15T13:21:33;10.30;96.60
26541;DHT22;14206;50.202;10.948;2023-04-15T13:24:02;10.30;96.60
26541;DHT22;14206;50.202;10.948;2023-04-15T13:26:30;10.30;96.60
26541;DHT22;14206;50.202;10.948;2023-04-15T13:28:57;10.30;96.60
26541;DHT22;14206;50.202;10.948;2023-04-15T13:31:24;10.30;96.60
26541;DHT22;14206;50.202;10.948;2023-04-15T13:33:52;10.40;96.60
26541;DHT22;14206;50.202;10.948;2023-04-15T13:36:18;10.40;96.60
26541;DHT22;14206;50.202;10.948;2023-04-15T13:38:45;10.60;96.60
26541;DHT22;14206;50.202;10.948;2023-04-15T13:41:16;10.70;96.60
26541;DHT22;14206;50.202;10.948;2023-04-15T13:43:42;10.80;96.60
26541;DHT22;14206;50.202;10.948;2023-04-15T13:46:09;10.80;96.60
26541;DHT22;14206;50.202;10.948;2023-04-15T13:48:36;10.80;96.60
26541;DHT22;14206;50.202;10.948;2023-04-15T13:51:03;10.80;96.60
26541;DHT22;14206;50.202;10.948;2023-04-15T13:53:30;10.70;96.60
26541;DHT22;14206;50.202;10.948;2023-04-15T13:56:08;10.70;96.60
26541;DHT22;14206;50.202;10.948;2023-04-15T13:58:36;10.70;96.60
26541;DHT22;14206;50.202;10.948;2023-04-15T14:01:03;10.70;96.60
26541;DHT22;14206;50.202;10.948;2023-04-15T14:03:33;10.80;96.60
26541;DHT22;14206;50.202;10.948;2023-04-15T14:06:00;10.90;96.60
26541;DHT22;14206;50.202;10.948;2023-04-15T14:08:27;10.90;96.60
26541;DHT22;14206;50.202;10.948;2023-04-15T14:10:55;11.00;96.60
26541;DHT22;14206;50.202;10.948;2023-04-15T14:13:23;11.10;96.60
26541;DHT22;14206;50.202;10.948;2023-04-15T14:15:49;11.10;96.20
26541;DHT22;14206;50.202;10.948;2023-04-15T14:18:16;11.00;96.40
26541;DHT22;14206;50.202;10.948;2023-04-15T14:20:43;10.90;96.60
26541;DHT22;14206;50.202;10.948;2023-04-15T14:23:10;10.90;96.60
26541;DHT22;14206;50.202;10.948;2023-04-15T14:25:37;10.90;96.40
26541;DHT22;14206;50.202;10.948;2023-04-15T14:28:07;10.80;96.60
26541;DHT22;14206;50.202;10.948;2023-04-15T14:30:34;10.80;96.60
26541;DHT22;14206;50.202;10.948;2023-04-15T14:33:01;10.90;96.60
26541;DHT22;14206;50.202;10.948;2023-04-15T14:35:28;10.90;96.60
26541;DHT22;14206;50.202;10.948;2023-04-15T14:37:55;11.00;96.60
26541;DHT22;14206;50.202;10.948;2023-04-15T14:40:22;11.00;96.60
26541;DHT22;14206;50.202;10.948;2023-04-15T14:42:49;11.00;96.60
26541;DHT22;14206;50.202;10.948;2023-04-15T14:45:16;11.00;96.60
26541;DHT22;14206;50.202;10.948;2023-04-15T14:47:43;11.00;96.60
26541;DHT22;14206;50.202;10.948;2023-04-15T14:50:10;11.10;96.60
26541;DHT22;14206;50.202;10.948;2023-04-15T14:52:37;11.10;96.60
26541;DHT22;14206;50.202;10.948;2023-04-15T14:55:10;11.10;96.60
26541;DHT22;14206;50.202;10.948;2023-04-15T14:57:39;11.10;96.60
26541;DHT22;14206;50.202;10.948;2023-04-15T15:00:07;11.00;96.60
26541;DHT22;14206;50.202;10.948;2023-04-15T15:02:36;11.00;96.60
26541;DHT22;14206;50.202;10.948;2023-04-15T15:05:06;10.90;96.60
26541;DHT22;14206;50.202;10.948;2023-04-15T15:07:35;10.90;96.60
26541;DHT22;14206;50.202;10.948;2023-04-15T15:10:03;10.90;96.60
26541;DHT22;14206;50.202;10.948;2023-04-15T15:12:31;10.90;96.60
26541;DHT22;14206;50.202;10.948;2023-04-15T15:14:58;10.90;96.60
26541;DHT22;14206;50.202;10.948;2023-04-15T15:17:27;10.90;96.60
26541;DHT22;14206;50.202;10.948;2023-04-15T15:19:54;10.90;96.60
26541;DHT22;14206;50.202;10.948;2023-04-15T15:22:21;10.80;96.60
26541;DHT22;14206;50.202;10.948;2023-04-15T15:24:47;10.80;96.60
26541;DHT22;14206;50.202;10.948;2023-04-15T15:27:14;10.70;96.60
26541;DHT22;14206;50.202;10.948;2023-04-15T15:29:41;10.60;96.60
26541;DHT22;14206;50.202;10.948;2023-04-15T15:32:08;10.50;96.60
26541;DHT22;14206;50.202;10.948;2023-04-15T15:34:35;10.50;96.60
26541;DHT22;14206;50.202;10.948;2023-04-15T15:37:01;10.40;96.60
26541;DHT22;14206;50.202;10.948;2023-04-15T15:39:28;10.40;96.60
26541;DHT22;14206;50.202;10.948;2023-04-15T15:41:55;10.40;96.60
26541;DHT22;14206;50.202;10.948;2023-04-15T15:44:22;10.30;96.60
26541;DHT22;14206;50.202;10.948;2023-04-15T15:46:49;10.30;96.60
26541;DHT22;14206;50.202;10.948;2023-04-15T15:49:17;10.30;96.60